Time;durP1;ratioP1;P1;durP2;ratioP2;P2;SDS_P1;SDS_P2;PMS_P1;PMS_P2;Temp;Humidity;BMP_temperature;BMP_pressure;BME280_temperature;BME280_humidity;BME280_pressure;Samples;Min_cycle;Max_cycle;Signal;HPM_P1;HPM_P2
2022/08/08 00:01:37;;;;;;;18.80;12.65;;;;;;;22.48;89.49;100219.00;4895872;29;20051;-71
2022/08/08 00:04:30;;;;;;;20.60;13.05;;;;;;;22.48;89.87;100220.72;4896221;29;20071;-71
2022/08/08 00:07:29;;;;;;;16.95;12.85;;;;;;;22.42;89.91;100222.56;4895974;29;20052;-71
2022/08/08 00:10:08;;;;;;;16.60;9.87;;;;;;;21.71;92.86;100193.78;4895979;29;20500;-71
2022/08/08 00:12:41;;;;;;;16.85;12.05;;;;;;;21.49;94.33;100163.38;4896020;29;20314;-71
2022/08/08 00:15:21;;;;;;;19.40;13.15;;;;;;;21.83;94.58;100193.63;4914581;29;20070;-71
2022/08/08 00:17:58;;;;;;;22.85;13.88;;;;;;;21.88;93.58;100214.59;4914691;29;20119;-71
2022/08/08 00:20:33;;;;;;;16.92;14.13;;;;;;;21.94;92.07;100210.13;4914598;29;20088;-71
2022/08/08 00:23:02;;;;;;;16.42;12.90;;;;;;;21.89;90.63;100198.78;4928720;29;20062;-71
2022/08/08 00:25:32;;;;;;;;;;;;;;;21.68;92.24;100206.97;4953193;28;20039;-71
2022/08/08 00:28:00;;;;;;;14.82;12.95;;;;;;;21.65;92.32;100208.75;4991399;28;19922;-71
2022/08/08 00:30:32;;;;;;;18.70;15.25;;;;;;;21.56;92.78;100200.09;4975034;28;20440;-71
2022/08/08 00:33:05;;;;;;;18.30;14.70;;;;;;;21.63;91.60;100220.16;4991249;28;20050;-71
2022/08/08 00:35:49;;;;;;;20.42;16.40;;;;;;;21.36;93.33;100224.84;4991375;28;20121;-71
2022/08/08 00:38:45;;;;;;;18.27;15.02;;;;;;;21.55;92.06;100222.00;4991281;28;20050;-71
2022/08/08 00:41:36;;;;;;;18.98;14.95;;;;;;;21.68;91.00;100228.00;4991028;28;20039;-71
2022/08/08 00:44:32;;;;;;;19.08;14.88;;;;;;;21.75;89.99;100227.88;4991043;28;20520;-71
2022/08/08 00:47:31;;;;;;;18.35;14.40;;;;;;;21.78;89.74;100233.13;4990976;28;20046;-71
2022/08/08 00:50:09;;;;;;;20.70;14.80;;;;;;;21.69;89.47;100235.84;4990887;28;20492;-71
2022/08/08 00:52:53;;;;;;;18.42;14.85;;;;;;;21.68;89.68;100233.25;5011459;28;20053;-71
2022/08/08 00:55:24;;;;;;;20.40;15.30;;;;;;;21.14;88.85;100140.19;5032691;28;20041;-71
2022/08/08 00:57:55;;;;;;;22.50;14.60;;;;;;;21.59;88.25;100242.97;5032811;28;20488;-71
2022/08/08 01:00:25;;;;;;;21.25;14.68;;;;;;;21.34;90.62;100231.84;5014652;28;20048;-71
2022/08/08 01:03:12;;;;;;;20.55;15.20;;;;;;;21.38;92.02;100241.44;5032358;28;20041;-71
2022/08/08 01:06:20;;;;;;;21.50;15.75;;;;;;;21.38;92.35;100238.81;5032461;28;20041;-71
2022/08/08 01:09:10;;;;;;;26.70;14.82;;;;;;;21.48;91.55;100231.69;4932696;29;20450;-71
2022/08/08 01:12:06;;;;;;;19.63;15.70;;;;;;;21.61;90.34;100237.72;4931749;28;20055;-71
2022/08/08 01:14:56;;;;;;;22.15;15.23;;;;;;;21.61;90.67;100237.72;4932685;29;20146;-71
2022/08/08 01:18:04;;;;;;;20.10;15.93;;;;;;;21.60;90.51;100230.72;4932689;29;20429;-71
2022/08/08 01:20:41;;;;;;;19.23;14.50;;;;;;;21.58;89.50;100229.84;4932452;29;20139;-71
2022/08/08 01:23:25;;;;;;;21.20;14.75;;;;;;;21.62;89.46;100231.53;4932637;29;20122;-71
2022/08/08 01:25:56;;;;;;;16.25;14.10;;;;;;;21.58;87.48;100237.75;4932422;29;20126;-71
2022/08/08 01:28:58;;;;;;;16.95;14.90;;;;;;;21.63;85.68;100236.81;4932455;29;20040;-71
2022/08/08 01:31:53;;;;;;;16.65;14.38;;;;;;;21.57;85.37;100236.88;4932375;29;20463;-71
2022/08/08 01:34:56;;;;;;;19.77;14.85;;;;;;;21.49;86.48;100242.16;4930452;29;20047;-71
2022/08/08 01:37:24;;;;;;;19.10;14.07;;;;;;;21.10;86.62;100178.75;4932167;29;20131;-71
2022/08/08 01:40:17;;;;;;;18.27;15.43;;;;;;;21.33;85.67;100238.88;4932125;29;20561;-71
2022/08/08 01:43:01;;;;;;;19.63;14.63;;;;;;;21.31;86.07;100239.78;4932071;29;20541;-71
2022/08/08 01:45:41;;;;;;;19.90;13.93;;;;;;;21.35;85.83;100238.84;4966589;28;20044;-71
2022/08/08 01:48:31;;;;;;;18.48;13.82;;;;;;;21.15;86.37;100245.19;5031496;28;20116;-71
2022/08/08 01:51:16;;;;;;;19.90;13.98;;;;;;;21.09;88.15;100242.63;5013648;28;20041;-70
2022/08/08 01:53:44;;;;;;;19.80;13.98;;;;;;;21.11;87.28;100240.84;5031278;28;20423;-71
2022/08/08 01:56:57;;;;;;;21.48;13.88;;;;;;;21.24;87.40;100251.22;5031471;28;20042;-71
2022/08/08 01:59:22;;;;;;;17.10;14.43;;;;;;;20.72;87.72;100195.72;4931816;29;20039;-71
2022/08/08 02:02:20;;;;;;;20.25;14.27;;;;;;;21.06;88.78;100244.41;4931955;29;20506;-71
2022/08/08 02:05:28;;;;;;;18.58;13.80;;;;;;;21.11;87.82;100246.09;4931676;29;20094;-71
2022/08/08 02:08:02;;;;;;;17.02;13.48;;;;;;;21.13;88.23;100241.72;4875103;29;20036;-71
2022/08/08 02:10:58;;;;;;;17.95;14.00;;;;;;;21.20;88.00;100247.75;4875154;29;20136;-71
2022/08/08 02:14:01;;;;;;;18.50;13.63;;;;;;;21.25;86.96;100250.34;4875188;29;20041;-71
2022/08/08 02:16:55;;;;;;;18.60;14.00;;;;;;;21.24;87.01;100246.84;4820205;29;20129;-71
2022/08/08 02:19:30;;;;;;;18.60;13.90;;;;;;;21.20;85.67;100249.50;4820045;29;20102;-71
2022/08/08 02:25:19;;;;;;;19.42;14.80;;;;;;;20.71;89.30;100235.06;4819904;29;20415;-71
2022/08/08 02:27:56;;;;;;;22.10;13.93;;;;;;;20.66;90.69;100246.47;4819950;29;20042;-71
2022/08/08 02:30:42;;;;;;;18.02;14.00;;;;;;;20.65;90.62;100233.38;4841206;29;20049;-71
2022/08/08 02:33:24;;;;;;;17.63;13.48;;;;;;;20.53;89.72;100226.47;4856365;29;20045;-71
2022/08/08 02:35:59;;;;;;;17.60;13.48;;;;;;;20.64;90.46;100244.75;4856520;29;20412;-71
2022/08/08 02:38:33;;;;;;;14.95;12.88;;;;;;;20.58;89.85;100245.66;4856419;29;20050;-71
2022/08/08 02:40:58;;;;;;;16.20;12.57;;;;;;;20.52;89.87;100246.59;4856231;29;20421;-71
2022/08/08 02:43:42;;;;;;;16.63;12.65;;;;;;;20.39;90.16;100259.78;4825444;29;20112;-71
2022/08/08 02:46:30;;;;;;;13.13;11.73;;;;;;;20.07;90.43;100225.03;4931297;29;20039;-71
2022/08/08 02:49:32;;;;;;;13.30;11.90;;;;;;;20.25;91.02;100260.78;4931074;29;20138;-71
2022/08/08 02:52:10;;;;;;;13.77;12.25;;;;;;;20.25;90.77;100265.13;4981037;28;20054;-71
2022/08/08 02:54:51;;;;;;;13.82;12.45;;;;;;;20.06;91.01;100264.38;5030845;28;20030;-70
2022/08/08 02:57:35;;;;;;;15.73;12.90;;;;;;;20.08;90.98;100260.84;5030950;28;20444;-71
2022/08/08 03:00:12;;;;;;;16.90;11.95;;;;;;;20.09;91.18;100261.72;5030477;28;20037;-71
2022/08/08 03:02:56;;;;;;;15.35;11.98;;;;;;;19.74;90.95;100213.84;5030490;28;20053;-71
2022/08/08 03:05:40;;;;;;;13.07;11.65;;;;;;;19.97;91.19;100260.91;5030509;28;20107;-71
2022/08/08 03:08:17;;;;;;;14.82;11.57;;;;;;;19.90;91.23;100269.69;5030464;28;20116;-71
2022/08/08 03:11:20;;;;;;;20.23;12.38;;;;;;;19.86;90.92;100275.81;5030589;28;20033;-70
2022/08/08 03:14:07;;;;;;;14.15;11.15;;;;;;;19.76;91.34;100276.69;5030465;28;20068;-70
2022/08/08 03:16:56;;;;;;;13.63;11.73;;;;;;;19.63;92.28;100276.75;5030357;28;20120;-71
2022/08/08 03:19:49;;;;;;;14.20;11.73;;;;;;;19.61;92.22;100267.16;5015100;28;20111;-71
2022/08/08 03:22:14;;;;;;;16.75;11.98;;;;;;;19.53;92.51;100270.66;5030237;28;20092;-70
2022/08/08 03:24:39;;;;;;;15.43;11.90;;;;;;;19.47;92.82;100272.44;5030147;28;20037;-70
2022/08/08 03:27:17;;;;;;;13.35;11.95;;;;;;;19.45;92.84;100275.06;5030226;28;20029;-70
2022/08/08 03:29:48;;;;;;;15.70;12.30;;;;;;;19.38;93.05;100279.44;5030484;28;20087;-70
2022/08/08 03:34:57;;;;;;;16.13;12.00;;;;;;;19.31;92.87;100280.31;5031589;28;20119;-70
2022/08/08 03:37:23;;;;;;;13.75;11.45;;;;;;;19.48;92.14;100288.13;5033834;28;20037;-70
2022/08/08 03:39:48;;;;;;;13.52;12.10;;;;;;;19.50;92.05;100290.75;5034056;28;20037;-71
2022/08/08 03:42:17;;;;;;;14.57;11.25;;;;;;;19.55;91.82;100292.50;5031557;28;20411;-70
2022/08/08 03:44:43;;;;;;;15.37;12.03;;;;;;;19.36;92.70;100299.50;5033904;28;20065;-70
2022/08/08 03:47:09;;;;;;;16.17;11.27;;;;;;;19.50;92.82;100299.50;4982990;28;20045;-70
2022/08/08 03:49:37;;;;;;;17.52;11.55;;;;;;;19.43;92.69;100297.75;5033656;28;20038;-70
2022/08/08 03:52:03;;;;;;;14.27;10.98;;;;;;;19.47;91.92;100290.75;5033803;28;20038;-70
2022/08/08 03:54:29;;;;;;;14.48;11.65;;;;;;;19.69;91.75;100307.28;5033894;28;20037;-71
2022/08/08 03:56:55;;;;;;;14.27;11.10;;;;;;;19.71;91.94;100301.16;5033783;28;20470;-70
2022/08/08 03:59:28;;;;;;;15.32;10.85;;;;;;;19.74;91.31;100313.38;5033480;28;20045;-70
2022/08/08 04:01:53;;;;;;;13.75;11.13;;;;;;;19.34;92.09;100255.88;5033501;28;20041;-70
2022/08/08 04:04:19;;;;;;;11.98;10.68;;;;;;;19.59;91.89;100311.69;5033342;28;20507;-70
2022/08/08 04:06:55;;;;;;;12.85;11.55;;;;;;;19.42;90.59;100266.34;5033680;28;20040;-70
2022/08/08 04:09:20;;;;;;;14.63;11.68;;;;;;;19.81;90.15;100317.72;5033363;28;20399;-70
2022/08/08 04:11:46;;;;;;;12.82;11.30;;;;;;;19.87;89.51;100322.94;5033385;28;20029;-70
2022/08/08 04:14:11;;;;;;;12.77;10.82;;;;;;;19.72;88.91;100320.38;4982197;28;20037;-70
2022/08/08 04:16:37;;;;;;;18.17;11.00;;;;;;;19.70;89.68;100324.72;5033358;28;20100;-70
2022/08/08 04:19:02;;;;;;;13.23;11.15;;;;;;;19.86;88.43;100328.19;5033179;28;20495;-70
2022/08/08 04:21:28;;;;;;;15.35;11.88;;;;;;;20.06;88.27;100332.50;5033252;28;20038;-70
2022/08/08 04:23:53;;;;;;;14.82;11.77;;;;;;;19.91;88.29;100333.44;5033061;28;20038;-70
2022/08/08 04:26:18;;;;;;;14.43;12.30;;;;;;;19.88;89.60;100329.94;5032957;28;20112;-70
2022/08/08 04:28:44;;;;;;;15.30;12.07;;;;;;;19.94;90.14;100338.66;5032947;28;20041;-70
2022/08/08 04:31:09;;;;;;;14.45;12.18;;;;;;;19.86;90.36;100310.75;5033032;28;20036;-70
2022/08/08 04:33:35;;;;;;;17.45;12.18;;;;;;;20.05;89.67;100334.25;5032791;28;20033;-70
2022/08/08 04:36:00;;;;;;;14.52;12.10;;;;;;;20.14;88.87;100339.44;5032760;28;20033;-70
2022/08/08 04:38:26;;;;;;;15.52;11.95;;;;;;;20.14;88.25;100336.84;5032986;28;20033;-70
2022/08/08 04:40:51;;;;;;;15.70;11.68;;;;;;;20.25;89.24;100339.41;5032923;28;20034;-70
2022/08/08 04:43:17;;;;;;;19.20;12.45;;;;;;;20.30;89.88;100342.88;5014045;28;20392;-70
2022/08/08 04:45:42;;;;;;;16.05;11.60;;;;;;;20.31;89.05;100330.63;5032584;28;20029;-71
2022/08/08 04:48:08;;;;;;;16.08;12.68;;;;;;;20.53;87.76;100347.97;5032546;28;20116;-70
2022/08/08 04:50:33;;;;;;;15.30;11.93;;;;;;;20.47;89.25;100360.25;5032747;28;20041;-71
2022/08/08 04:52:59;;;;;;;14.50;11.30;;;;;;;20.41;89.71;100334.06;5032543;28;20412;-70
2022/08/08 04:55:24;;;;;;;13.25;11.50;;;;;;;20.59;88.67;100349.69;4981614;28;20542;-70
2022/08/08 04:57:49;;;;;;;13.85;11.93;;;;;;;20.30;89.06;100292.19;5032549;28;20484;-70
2022/08/08 05:00:15;;;;;;;14.10;11.40;;;;;;;20.72;88.53;100345.25;5032436;28;20029;-70
2022/08/08 05:02:40;;;;;;;16.25;12.20;;;;;;;20.83;89.07;100350.44;5032287;28;20041;-70
2022/08/08 05:05:06;;;;;;;16.00;13.02;;;;;;;20.81;87.20;100331.22;5032468;28;20064;-70
2022/08/08 05:07:32;;;;;;;14.32;12.48;;;;;;;20.92;88.29;100347.78;5032319;28;20680;-70
2022/08/08 05:09:57;;;;;;;18.70;12.07;;;;;;;21.09;86.22;100349.38;5032314;28;20033;-70
2022/08/08 05:12:23;;;;;;;13.68;12.25;;;;;;;21.16;86.40;100354.56;5032371;28;20407;-70
2022/08/08 05:14:48;;;;;;;13.73;12.35;;;;;;;21.33;88.04;100350.91;5032216;28;20107;-70
2022/08/08 05:17:14;;;;;;;14.68;12.38;;;;;;;21.37;87.38;100355.25;5032084;28;20039;-70
2022/08/08 05:19:39;;;;;;;13.60;12.30;;;;;;;21.48;85.62;100363.91;5032076;28;20048;-70
2022/08/08 05:22:09;;;;;;;17.20;12.10;;;;;;;21.60;85.65;100367.31;5032152;28;20037;-70
2022/08/08 05:24:35;;;;;;;18.48;12.77;;;;;;;21.64;90.23;100361.13;5031905;28;20065;-70
2022/08/08 05:27:01;;;;;;;18.30;14.70;;;;;;;21.15;92.26;100302.06;5031858;28;20038;-70
2022/08/08 05:29:26;;;;;;;16.90;15.00;;;;;;;21.40;94.38;100335.97;5031878;28;20389;-70
2022/08/08 05:31:52;;;;;;;22.95;15.35;;;;;;;21.31;92.94;100300.19;5031672;28;20470;-70
2022/08/08 05:34:32;;;;;;;16.58;14.63;;;;;;;21.76;92.92;100363.63;5031888;28;20029;-70
2022/08/08 05:36:58;;;;;;;17.77;14.35;;;;;;;21.87;90.44;100352.13;5031750;28;20034;-70
2022/08/08 05:39:25;;;;;;;20.33;15.55;;;;;;;21.75;93.01;100322.47;5031778;28;20067;-70
2022/08/08 05:41:51;;;;;;;17.30;14.65;;;;;;;21.75;92.04;100351.38;5031534;28;20495;-70
2022/08/08 05:44:31;;;;;;;19.33;15.55;;;;;;;21.84;91.67;100355.66;5031497;28;20042;-70
2022/08/08 05:46:58;;;;;;;18.95;16.27;;;;;;;21.95;90.22;100363.44;5029908;28;20041;-70
2022/08/08 05:49:24;;;;;;;18.15;14.82;;;;;;;21.92;88.11;100360.81;5031466;28;20041;-70
2022/08/08 05:51:49;;;;;;;18.27;14.57;;;;;;;21.88;88.10;100320.59;5031383;28;20049;-71
2022/08/08 05:54:16;;;;;;;20.55;15.07;;;;;;;22.32;88.91;100359.47;5031474;28;20034;-70
2022/08/08 05:56:43;;;;;;;19.33;14.48;;;;;;;22.54;86.05;100363.59;5031296;28;20047;-71
2022/08/08 05:59:18;;;;;;;26.27;14.35;;;;;;;22.80;84.44;100367.56;5030996;28;20030;-70
2022/08/08 06:01:51;;;;;;;21.15;14.45;;;;;;;23.00;82.99;100354.09;5031282;28;20038;-70
2022/08/08 06:04:21;;;;;;;17.13;13.32;;;;;;;23.15;82.80;100365.28;5031208;28;20038;-70
2022/08/08 06:06:47;;;;;;;17.75;12.45;;;;;;;22.87;82.98;100307.81;5031544;28;20037;-70
2022/08/08 06:09:15;;;;;;;13.52;11.80;;;;;;;23.32;81.39;100368.53;5031070;28;20768;-70
2022/08/08 06:11:41;;;;;;;15.18;10.77;;;;;;;23.40;79.44;100376.28;5030964;28;20034;-70
2022/08/08 06:14:08;;;;;;;13.32;9.38;;;;;;;23.49;76.03;100375.25;5031451;28;20030;-70
2022/08/08 06:16:38;;;;;;;14.40;10.07;;;;;;;23.51;75.67;100373.47;5031218;28;20071;-70
2022/08/08 06:19:04;;;;;;;14.82;9.40;;;;;;;23.53;73.49;100366.41;5031160;28;20061;-70
2022/08/08 06:21:30;;;;;;;13.43;9.80;;;;;;;23.61;72.93;100376.81;5031000;28;20123;-70
2022/08/08 06:23:55;;;;;;;11.75;8.15;;;;;;;23.77;70.70;100382.66;5030798;28;20026;-70
2022/08/08 06:26:24;;;;;;;12.35;9.02;;;;;;;23.92;71.52;100377.09;5031163;28;20047;-70
2022/08/08 06:29:01;;;;;;;16.17;8.82;;;;;;;23.97;69.75;100343.59;5030896;28;20059;-70
2022/08/08 06:31:33;;;;;;;13.00;8.10;;;;;;;24.53;66.76;100389.91;5030926;28;20038;-71
2022/08/08 06:34:10;;;;;;;10.30;7.80;;;;;;;24.70;66.98;100385.16;5030935;28;20033;-71
2022/08/08 06:36:38;;;;;;;11.63;8.52;;;;;;;24.61;66.03;100342.22;5030763;28;20037;-71
2022/08/08 06:39:06;;;;;;;10.32;7.57;;;;;;;25.01;64.77;100386.19;5030760;28;20029;-71
2022/08/08 06:41:33;;;;;;;10.55;7.05;;;;;;;25.05;64.32;100387.88;5030587;28;20411;-72
2022/08/08 06:44:02;;;;;;;9.57;7.32;;;;;;;25.20;64.81;100390.13;5030568;28;20034;-71
2022/08/08 06:46:28;;;;;;;9.38;7.63;;;;;;;25.09;64.03;100341.13;5030778;28;20044;-71
2022/08/08 06:48:54;;;;;;;8.70;7.10;;;;;;;25.52;63.23;100382.28;5030573;28;20034;-70
2022/08/08 06:51:21;;;;;;;11.35;7.63;;;;;;;25.52;63.04;100385.81;5030864;28;20116;-70
2022/08/08 06:53:48;;;;;;;9.95;7.18;;;;;;;25.32;62.22;100337.84;5030938;28;20050;-70
2022/08/08 06:56:14;;;;;;;8.57;7.45;;;;;;;25.70;61.58;100388.03;5030851;28;20559;-70
2022/08/08 06:58:39;;;;;;;12.57;7.07;;;;;;;25.72;60.99;100386.19;5030677;28;20116;-70
2022/08/08 07:01:07;;;;;;;8.48;7.03;;;;;;;25.92;60.13;100378.56;5030512;28;20094;-71
2022/08/08 07:04:10;;;;;;;7.75;6.80;;;;;;;26.05;59.42;100378.22;5030429;28;20066;-71
2022/08/08 07:06:41;;;;;;;10.18;6.80;;;;;;;26.17;58.52;100375.25;4912048;29;20490;-71
2022/08/08 07:09:17;;;;;;;9.10;6.50;;;;;;;26.26;57.99;100382.06;4912004;29;20037;-71
2022/08/08 07:11:50;;;;;;;13.13;6.30;;;;;;;26.13;58.20;100336.56;4915780;29;20048;-71
2022/08/08 07:14:17;;;;;;;10.98;6.03;;;;;;;26.41;58.50;100391.31;4915977;29;20043;-70
2022/08/08 07:16:54;;;;;;;14.00;6.13;;;;;;;26.28;57.39;100336.09;4915866;29;20084;-70
2022/08/08 07:19:29;;;;;;;8.05;5.40;;;;;;;26.87;54.32;100391.69;4915504;29;20048;-71
2022/08/08 07:21:54;;;;;;;8.73;5.13;;;;;;;26.76;53.82;100394.69;4915610;29;20040;-71
2022/08/08 07:24:34;;;;;;;13.63;6.43;;;;;;;26.68;53.27;100392.25;4915555;29;20124;-71
2022/08/08 07:27:00;;;;;;;19.45;6.80;;;;;;;26.58;53.06;100351.94;4915777;29;20123;-71
2022/08/08 07:29:26;;;;;;;21.13;6.72;;;;;;;26.87;52.32;100397.00;4899491;29;20043;-70
2022/08/08 07:31:51;;;;;;;17.73;6.55;;;;;;;27.01;52.16;100378.00;4915540;29;20517;-71
2022/08/08 07:34:17;;;;;;;11.63;5.65;;;;;;;27.26;52.51;100389.50;4915603;29;20044;-71
2022/08/08 07:36:45;;;;;;;14.05;5.82;;;;;;;27.36;51.67;100391.84;4915401;29;20113;-70
2022/08/08 07:39:11;;;;;;;19.17;6.72;;;;;;;27.45;49.91;100388.91;4915513;29;20079;-71
2022/08/08 07:41:39;;;;;;;20.75;6.20;;;;;;;27.50;49.46;100373.69;4915512;29;20035;-71
2022/08/08 07:44:05;;;;;;;24.05;6.20;;;;;;;27.34;48.88;100369.81;4993959;28;20080;-71
2022/08/08 07:46:31;;;;;;;15.50;6.50;;;;;;;27.30;50.09;100387.59;5033914;28;20029;-70
2022/08/08 07:49:16;;;;;;;8.25;4.60;;;;;;;27.49;50.37;100387.00;5033842;28;20186;-71
2022/08/08 07:51:42;;;;;;;17.45;5.55;;;;;;;27.54;49.69;100372.69;4991851;28;20035;-71
2022/08/08 07:54:35;;;;;;;16.02;5.72;;;;;;;27.72;49.90;100386.22;4991829;28;20061;-70
2022/08/08 07:57:19;;;;;;;16.75;5.45;;;;;;;27.92;50.63;100393.44;4991882;28;20065;-71
2022/08/08 07:59:53;;;;;;;13.00;5.28;;;;;;;28.05;49.38;100383.25;4991974;28;20061;-71
2022/08/08 08:02:31;;;;;;;24.05;5.78;;;;;;;28.00;47.46;100369.25;4991807;28;20034;-70
2022/08/08 08:05:00;;;;;;;21.15;5.40;;;;;;;28.12;45.93;100366.19;4991829;28;20481;-71
2022/08/08 08:07:33;;;;;;;7.57;4.05;;;;;;;27.99;47.37;100330.38;4991917;28;20056;-71
2022/08/08 08:10:03;;;;;;;7.18;3.90;;;;;;;28.39;46.13;100379.34;4991722;28;20112;-71
2022/08/08 08:12:29;;;;;;;9.65;4.28;;;;;;;28.50;45.06;100371.81;4991640;28;20403;-70
2022/08/08 08:15:03;;;;;;;9.50;3.78;;;;;;;28.72;45.46;100368.31;4991716;28;20044;-71
2022/08/08 08:17:29;;;;;;;10.35;4.30;;;;;;;28.79;45.06;100363.63;4988963;28;20042;-70
2022/08/08 08:19:57;;;;;;;10.15;4.15;;;;;;;28.98;46.24;100366.41;4991739;28;20409;-70
2022/08/08 08:22:23;;;;;;;7.03;3.88;;;;;;;28.62;44.82;100312.00;4989734;28;20045;-71
2022/08/08 08:24:49;;;;;;;12.50;4.40;;;;;;;29.01;49.67;100364.47;5032816;28;20419;-70
2022/08/08 08:27:15;;;;;;;15.02;4.55;;;;;;;28.98;46.77;100359.28;5033037;28;20068;-71
2022/08/08 08:29:41;;;;;;;16.17;4.47;;;;;;;29.14;49.32;100351.53;5033064;28;20121;-70
2022/08/08 08:32:07;;;;;;;19.52;4.85;;;;;;;29.21;45.03;100354.81;5033085;28;20111;-70
2022/08/08 08:34:34;;;;;;;7.70;3.33;;;;;;;29.46;41.06;100343.09;5032942;28;20492;-70
2022/08/08 08:37:01;;;;;;;13.95;2.63;;;;;;;29.77;39.76;100347.94;5032834;28;20045;-70
2022/08/08 08:39:27;;;;;;;8.98;2.63;;;;;;;30.07;40.79;100354.59;5032647;28;20116;-70
2022/08/08 08:41:52;;;;;;;4.63;2.58;;;;;;;30.21;39.76;100343.31;5033096;28;20121;-70
2022/08/08 08:44:21;;;;;;;5.53;2.78;;;;;;;30.38;38.31;100339.84;5032858;28;20041;-70
2022/08/08 08:46:47;;;;;;;14.77;3.42;;;;;;;30.25;37.01;100302.31;5015086;28;20388;-70
2022/08/08 08:49:13;;;;;;;9.35;2.80;;;;;;;30.68;36.42;100353.53;5032819;28;20099;-70
2022/08/08 08:51:42;;;;;;;12.77;3.10;;;;;;;30.79;37.26;100345.88;5032543;28;20053;-70
2022/08/08 08:54:08;;;;;;;13.75;3.60;;;;;;;30.80;37.93;100334.25;5032557;28;20119;-70
2022/08/08 08:56:36;;;;;;;10.57;3.58;;;;;;;30.94;40.10;100332.69;5032587;28;20124;-70
2022/08/08 08:59:04;;;;;;;16.85;4.53;;;;;;;31.01;36.03;100342.13;5032265;28;20500;-70
2022/08/08 09:01:34;;;;;;;13.98;3.30;;;;;;;31.13;35.57;100332.69;5014975;28;20046;-70
2022/08/08 09:04:24;;;;;;;12.77;3.72;;;;;;;31.24;36.58;100340.97;5032235;28;20033;-70
2022/08/08 09:06:52;;;;;;;7.55;2.58;;;;;;;31.36;37.45;100339.47;5032487;28;20541;-70
2022/08/08 09:09:24;;;;;;;10.88;2.75;;;;;;;31.18;35.55;100285.28;5032134;28;20072;-70
2022/08/08 09:11:52;;;;;;;8.77;2.72;;;;;;;31.33;35.88;100283.63;5032321;28;20046;-70
2022/08/08 09:14:24;;;;;;;16.92;3.28;;;;;;;31.70;35.79;100332.41;5032203;28;20056;-70
2022/08/08 09:16:51;;;;;;;9.85;2.70;;;;;;;31.72;33.98;100317.13;5032101;28;20061;-70
2022/08/08 09:19:17;;;;;;;16.85;3.53;;;;;;;31.89;34.49;100320.69;5032361;28;20033;-70
2022/08/08 09:21:45;;;;;;;13.07;2.67;;;;;;;32.00;34.24;100322.78;5025997;28;20053;-70
2022/08/08 09:24:11;;;;;;;27.67;6.00;;;;;;;32.12;35.19;100327.44;5031989;28;20038;-70
2022/08/08 09:26:57;;;;;;;34.10;7.50;;;;;;;31.97;33.44;100334.50;5031973;28;20087;-70
2022/08/08 09:29:24;;;;;;;21.15;4.45;;;;;;;31.91;33.82;100316.97;5031825;28;20041;-70
2022/08/08 09:32:04;;;;;;;7.30;3.17;;;;;;;31.74;34.93;100303.69;5031380;28;20403;-70
2022/08/08 09:34:35;;;;;;;9.20;2.40;;;;;;;31.90;34.01;100309.06;5031715;28;20037;-70
2022/08/08 09:37:09;;;;;;;18.05;3.63;;;;;;;32.16;33.76;100307.63;5031876;28;20087;-69
2022/08/08 09:39:45;;;;;;;18.67;4.18;;;;;;;32.23;33.52;100310.84;5032060;28;20037;-70
2022/08/08 09:42:15;;;;;;;21.10;4.40;;;;;;;32.33;33.14;100308.53;5031800;28;20068;-70
2022/08/08 09:45:01;;;;;;;;;;;;;;;32.38;32.61;100295.75;5031940;28;20041;-70
2022/08/08 09:47:31;;;;;;;14.75;3.10;;;;;;;32.28;32.36;100311.44;5013987;28;20298;-69
2022/08/08 09:49:58;;;;;;;8.63;3.20;;;;;;;32.41;33.28;100290.22;5031914;28;20037;-70
2022/08/08 09:52:29;;;;;;;17.48;3.80;;;;;;;32.56;32.07;100297.38;5031183;28;20559;-70
2022/08/08 09:54:55;;;;;;;11.25;2.75;;;;;;;32.68;31.96;100284.25;5031719;28;20404;-70
2022/08/08 09:57:41;;;;;;;11.70;2.88;;;;;;;32.71;31.97;100281.38;5031557;28;20033;-70
2022/08/08 10:00:09;;;;;;;12.45;3.05;;;;;;;32.57;31.61;100284.84;5031428;28;20037;-70
2022/08/08 10:02:37;;;;;;;28.60;4.40;;;;;;;32.67;32.44;100294.06;5031126;28;20064;-71
2022/08/08 10:05:09;;;;;;;7.82;2.80;;;;;;;32.82;31.14;100284.31;5031148;28;20125;-70
2022/08/08 10:07:35;;;;;;;10.23;3.10;;;;;;;32.99;30.83;100272.59;5031412;28;20037;-70
2022/08/08 10:10:02;;;;;;;6.07;2.60;;;;;;;33.19;30.75;100275.88;5031050;28;20053;-69
2022/08/08 10:12:32;;;;;;;12.32;3.05;;;;;;;33.33;31.76;100261.69;5031186;28;20087;-70
2022/08/08 10:15:03;;;;;;;14.10;3.40;;;;;;;33.54;28.97;100280.91;5031205;28;20126;-70
2022/08/08 10:17:31;;;;;;;9.35;2.92;;;;;;;33.47;28.38;100259.03;5031059;28;20045;-70
2022/08/08 10:20:01;;;;;;;5.75;2.30;;;;;;;33.18;30.01;100272.34;5031294;28;20395;-70
2022/08/08 10:22:28;;;;;;;30.25;5.78;;;;;;;32.90;31.33;100275.84;4980462;28;20044;-70
2022/08/08 10:25:06;;;;;;;22.73;4.80;;;;;;;32.93;29.52;100258.75;5030865;28;20065;-70
2022/08/08 10:27:41;;;;;;;19.55;4.38;;;;;;;33.18;30.43;100264.31;5031076;28;20446;-70
2022/08/08 10:30:07;;;;;;;7.95;2.67;;;;;;;33.52;29.04;100264.06;5031001;28;20131;-70
2022/08/08 10:32:36;;;;;;;18.92;4.50;;;;;;;33.53;28.52;100214.94;5030883;28;20064;-71
2022/08/08 10:35:06;;;;;;;31.08;6.50;;;;;;;34.00;28.85;100245.00;5030844;28;20511;-70
2022/08/08 10:37:34;;;;;;;24.92;5.10;;;;;;;33.97;27.85;100245.19;5030900;28;20514;-70
2022/08/08 10:40:12;;;;;;;13.38;3.03;;;;;;;33.72;28.95;100230.69;5030726;28;20491;-70
2022/08/08 10:42:40;;;;;;;16.48;2.78;;;;;;;34.02;28.63;100262.69;5030881;28;20041;-70
2022/08/08 10:45:07;;;;;;;15.18;3.92;;;;;;;34.30;28.13;100252.00;5030470;28;20554;-70
2022/08/08 10:47:33;;;;;;;27.75;5.93;;;;;;;34.37;28.88;100242.63;5031024;28;20041;-70
2022/08/08 10:50:01;;;;;;;29.27;5.40;;;;;;;34.18;28.27;100210.78;5012959;28;20049;-70
2022/08/08 10:52:32;;;;;;;35.05;6.45;;;;;;;34.54;27.61;100238.78;5030650;28;20411;-70
2022/08/08 10:55:05;;;;;;;11.55;2.50;;;;;;;34.29;27.70;100259.16;5030521;28;20034;-70
2022/08/08 10:57:36;;;;;;;12.15;3.40;;;;;;;33.85;29.41;100201.34;5030738;28;20045;-70
2022/08/08 11:00:03;;;;;;;12.02;3.60;;;;;;;34.25;29.94;100248.75;5030594;28;20569;-70
2022/08/08 11:02:33;;;;;;;8.60;3.10;;;;;;;33.74;27.97;100202.00;5030622;28;20048;-69
2022/08/08 11:05:00;;;;;;;23.98;3.92;;;;;;;33.77;28.11;100250.00;5030449;28;20030;-70
2022/08/08 11:07:28;;;;;;;15.02;3.47;;;;;;;33.87;27.94;100244.94;5030249;28;20048;-70
2022/08/08 11:09:55;;;;;;;26.47;4.50;;;;;;;33.99;27.42;100244.13;5030712;28;20034;-70
2022/08/08 11:12:21;;;;;;;10.05;2.83;;;;;;;34.13;27.30;100245.06;5030638;28;20064;-70
2022/08/08 11:14:49;;;;;;;9.65;2.60;;;;;;;34.15;26.85;100237.78;5030360;28;20041;-70
2022/08/08 11:17:17;;;;;;;5.47;2.22;;;;;;;34.37;26.89;100231.91;5030497;28;20038;-70
2022/08/08 11:19:43;;;;;;;5.33;2.17;;;;;;;34.44;26.98;100179.56;5030445;28;20046;-70
2022/08/08 11:22:13;;;;;;;3.35;2.00;;;;;;;34.92;26.28;100232.66;5030356;28;20034;-70
2022/08/08 11:24:41;;;;;;;5.40;2.35;;;;;;;34.72;26.31;100242.06;5030426;28;20096;-70
2022/08/08 11:27:07;;;;;;;9.65;2.67;;;;;;;34.43;26.87;100244.00;5030453;28;20048;-70
2022/08/08 11:29:35;;;;;;;24.13;4.82;;;;;;;34.54;27.66;100236.09;5030419;28;20069;-70
2022/08/08 11:32:06;;;;;;;15.80;3.10;;;;;;;34.84;26.21;100237.66;5030382;28;20580;-70
2022/08/08 11:34:36;;;;;;;41.60;7.55;;;;;;;34.37;26.08;100205.09;5027505;28;20045;-70
2022/08/08 11:37:02;;;;;;;5.07;2.55;;;;;;;34.33;26.14;100235.69;5030224;28;20113;-70
2022/08/08 11:39:29;;;;;;;11.88;2.78;;;;;;;34.10;26.55;100246.13;5030409;28;20041;-70
2022/08/08 11:41:55;;;;;;;23.63;4.15;;;;;;;34.13;27.24;100243.25;5028442;28;20136;-71
2022/08/08 11:44:22;;;;;;;8.02;2.83;;;;;;;34.19;25.96;100202.63;5029946;28;20046;-70
2022/08/08 11:46:48;;;;;;;16.30;4.60;;;;;;;34.72;25.57;100223.28;5030122;28;20121;-70